sensor_id;sensor_type;location;lat;lon;timestamp;pressure;altitude;pressure_sealevel;temperature;humidity
38900;BME280;24660;43.238;26.576;2022-11-04T00:01:50;99637.22;;;7.56;100.00
38900;BME280;24660;43.238;26.576;2022-11-04T00:04:19;99627.09;;;7.48;100.00
38900;BME280;24660;43.238;26.576;2022-11-04T00:06:45;99632.53;;;7.59;100.00
38900;BME280;24660;43.238;26.576;2022-11-04T00:09:11;99625.09;;;7.52;100.00
38900;BME280;24660;43.238;26.576;2022-11-04T00:11:37;99631.88;;;7.29;100.00
38900;BME280;24660;43.238;26.576;2022-11-04T00:14:18;99619.78;;;7.10;100.00
38900;BME280;24660;43.238;26.576;2022-11-04T00:16:43;99631.84;;;7.02;100.00
38900;BME280;24660;43.238;26.576;2022-11-04T00:19:24;99623.72;;;6.91;100.00
38900;BME280;24660;43.238;26.576;2022-11-04T00:21:49;99627.09;;;7.07;100.00
38900;BME280;24660;43.238;26.576;2022-11-04T00:24:30;99629.78;;;6.93;100.00
38900;BME280;24660;43.238;26.576;2022-11-04T00:27:12;99623.44;;;6.67;100.00
38900;BME280;24660;43.238;26.576;2022-11-04T00:29:53;99631.19;;;6.70;100.00
38900;BME280;24660;43.238;26.576;2022-11-04T00:32:18;99635.75;;;6.82;100.00
38900;BME280;24660;43.238;26.576;2022-11-04T00:34:59;99625.41;;;6.92;100.00
38900;BME280;24660;43.238;26.576;2022-11-04T00:37:25;99629.34;;;7.13;100.00
38900;BME280;24660;43.238;26.576;2022-11-04T00:39:50;99625.13;;;6.96;100.00
38900;BME280;24660;43.238;26.576;2022-11-04T00:42:15;99628.06;;;6.92;100.00
38900;BME280;24660;43.238;26.576;2022-11-04T00:44:41;99616.19;;;6.83;100.00
38900;BME280;24660;43.238;26.576;2022-11-04T00:47:06;99616.19;;;6.97;100.00
38900;BME280;24660;43.238;26.576;2022-11-04T00:49:31;99620.22;;;6.62;100.00
38900;BME280;24660;43.238;26.576;2022-11-04T00:51:56;99623.78;;;6.75;100.00
38900;BME280;24660;43.238;26.576;2022-11-04T00:54:22;99623.03;;;6.59;100.00
38900;BME280;24660;43.238;26.576;2022-11-04T00:56:47;99613.66;;;6.39;100.00
38900;BME280;24660;43.238;26.576;2022-11-04T00:59:13;99627.59;;;6.57;100.00
38900;BME280;24660;43.238;26.576;2022-11-04T01:01:38;99625.88;;;6.70;100.00
38900;BME280;24660;43.238;26.576;2022-11-04T01:04:03;99615.56;;;6.65;100.00
38900;BME280;24660;43.238;26.576;2022-11-04T01:06:29;99617.06;;;6.55;100.00
38900;BME280;24660;43.238;26.576;2022-11-04T01:08:56;99610.88;;;6.83;100.00
38900;BME280;24660;43.238;26.576;2022-11-04T01:11:21;99604.44;;;6.73;100.00
38900;BME280;24660;43.238;26.576;2022-11-04T01:13:48;99600.28;;;6.54;100.00
38900;BME280;24660;43.238;26.576;2022-11-04T01:16:14;99606.75;;;6.65;100.00
38900;BME280;24660;43.238;26.576;2022-11-04T01:18:39;99599.97;;;6.45;100.00
38900;BME280;24660;43.238;26.576;2022-11-04T01:21:06;99608.91;;;6.44;100.00
38900;BME280;24660;43.238;26.576;2022-11-04T01:23:32;99600.25;;;6.26;100.00
38900;BME280;24660;43.238;26.576;2022-11-04T01:25:58;99605.75;;;6.23;100.00
38900;BME280;24660;43.238;26.576;2022-11-04T01:28:23;99604.31;;;6.17;100.00
38900;BME280;24660;43.238;26.576;2022-11-04T01:30:48;99606.31;;;6.14;100.00
38900;BME280;24660;43.238;26.576;2022-11-04T01:33:14;99610.44;;;6.04;100.00
38900;BME280;24660;43.238;26.576;2022-11-04T01:35:39;99607.78;;;6.04;100.00
38900;BME280;24660;43.238;26.576;2022-11-04T01:38:04;99599.84;;;6.04;100.00
38900;BME280;24660;43.238;26.576;2022-11-04T01:40:34;99599.34;;;5.97;100.00
38900;BME280;24660;43.238;26.576;2022-11-04T01:42:59;99601.09;;;6.12;100.00
38900;BME280;24660;43.238;26.576;2022-11-04T01:45:25;99603.53;;;6.01;100.00
38900;BME280;24660;43.238;26.576;2022-11-04T01:50:31;99591.88;;;6.04;100.00
38900;BME280;24660;43.238;26.576;2022-11-04T01:53:00;99593.13;;;6.12;100.00
38900;BME280;24660;43.238;26.576;2022-11-04T01:55:28;99599.00;;;6.17;100.00
38900;BME280;24660;43.238;26.576;2022-11-04T01:57:56;99588.91;;;6.38;100.00
38900;BME280;24660;43.238;26.576;2022-11-04T02:00:23;99582.34;;;6.30;100.00
38900;BME280;24660;43.238;26.576;2022-11-04T02:02:53;99583.09;;;6.32;100.00
38900;BME280;24660;43.238;26.576;2022-11-04T02:05:18;99579.19;;;6.09;100.00
38900;BME280;24660;43.238;26.576;2022-11-04T02:07:46;99579.28;;;6.07;100.00
38900;BME280;24660;43.238;26.576;2022-11-04T02:10:12;99577.50;;;6.22;100.00
38900;BME280;24660;43.238;26.576;2022-11-04T02:12:38;99581.38;;;6.31;100.00
38900;BME280;24660;43.238;26.576;2022-11-04T02:15:21;99573.81;;;6.24;100.00
38900;BME280;24660;43.238;26.576;2022-11-04T02:17:55;99573.41;;;6.16;100.00
38900;BME280;24660;43.238;26.576;2022-11-04T02:25:24;99559.03;;;6.20;100.00
38900;BME280;24660;43.238;26.576;2022-11-04T02:30:47;99554.00;;;6.30;100.00
38900;BME280;24660;43.238;26.576;2022-11-04T02:33:22;99543.97;;;6.35;100.00
38900;BME280;24660;43.238;26.576;2022-11-04T02:41:16;99529.81;;;5.92;100.00
38900;BME280;24660;43.238;26.576;2022-11-04T02:43:47;99528.13;;;5.75;100.00
38900;BME280;24660;43.238;26.576;2022-11-04T02:49:02;99528.78;;;5.94;100.00
38900;BME280;24660;43.238;26.576;2022-11-04T02:51:30;99529.38;;;5.84;100.00
38900;BME280;24660;43.238;26.576;2022-11-04T02:54:00;99519.63;;;5.84;100.00
38900;BME280;24660;43.238;26.576;2022-11-04T02:56:28;99521.22;;;5.87;100.00
38900;BME280;24660;43.238;26.576;2022-11-04T02:58:57;99531.63;;;5.76;100.00
38900;BME280;24660;43.238;26.576;2022-11-04T03:01:27;99519.13;;;5.63;100.00
38900;BME280;24660;43.238;26.576;2022-11-04T03:03:55;99519.31;;;5.45;100.00
38900;BME280;24660;43.238;26.576;2022-11-04T03:06:25;99518.25;;;5.33;100.00
38900;BME280;24660;43.238;26.576;2022-11-04T03:08:52;99521.13;;;5.14;100.00
38900;BME280;24660;43.238;26.576;2022-11-04T03:11:19;99525.28;;;5.18;100.00
38900;BME280;24660;43.238;26.576;2022-11-04T03:13:50;99519.69;;;5.09;100.00
38900;BME280;24660;43.238;26.576;2022-11-04T03:16:20;99523.41;;;5.20;100.00
38900;BME280;24660;43.238;26.576;2022-11-04T03:21:30;99517.72;;;5.42;100.00
38900;BME280;24660;43.238;26.576;2022-11-04T03:23:57;99522.75;;;5.47;100.00
38900;BME280;24660;43.238;26.576;2022-11-04T03:26:27;99515.50;;;5.34;100.00
38900;BME280;24660;43.238;26.576;2022-11-04T03:31:38;99503.84;;;5.53;100.00
38900;BME280;24660;43.238;26.576;2022-11-04T03:34:05;99510.66;;;5.27;100.00
38900;BME280;24660;43.238;26.576;2022-11-04T03:36:30;99513.53;;;5.38;100.00
38900;BME280;24660;43.238;26.576;2022-11-04T03:38:55;99501.59;;;5.31;100.00
38900;BME280;24660;43.238;26.576;2022-11-04T03:41:23;99492.13;;;5.27;100.00
38900;BME280;24660;43.238;26.576;2022-11-04T03:43:51;99494.66;;;5.28;100.00
38900;BME280;24660;43.238;26.576;2022-11-04T03:46:16;99495.38;;;5.16;100.00
38900;BME280;24660;43.238;26.576;2022-11-04T03:48:42;99492.72;;;5.16;100.00
38900;BME280;24660;43.238;26.576;2022-11-04T03:51:09;99488.03;;;5.51;100.00
38900;BME280;24660;43.238;26.576;2022-11-04T03:53:34;99485.34;;;5.37;100.00
38900;BME280;24660;43.238;26.576;2022-11-04T04:04:08;99480.50;;;5.14;100.00
38900;BME280;24660;43.238;26.576;2022-11-04T04:06:37;99480.34;;;5.17;100.00
38900;BME280;24660;43.238;26.576;2022-11-04T04:09:05;99480.09;;;5.65;100.00
38900;BME280;24660;43.238;26.576;2022-11-04T04:11:38;99478.06;;;5.41;100.00
38900;BME280;24660;43.238;26.576;2022-11-04T04:14:12;99481.75;;;5.08;100.00
38900;BME280;24660;43.238;26.576;2022-11-04T04:16:59;99484.00;;;5.44;100.00
38900;BME280;24660;43.238;26.576;2022-11-04T04:19:27;99478.63;;;5.16;100.00
38900;BME280;24660;43.238;26.576;2022-11-04T04:21:54;99484.59;;;5.35;100.00
38900;BME280;24660;43.238;26.576;2022-11-04T04:24:23;99486.63;;;5.30;100.00
38900;BME280;24660;43.238;26.576;2022-11-04T04:27:07;99484.03;;;5.14;100.00
38900;BME280;24660;43.238;26.576;2022-11-04T04:29:49;99486.94;;;5.40;100.00
38900;BME280;24660;43.238;26.576;2022-11-04T04:32:15;99483.63;;;5.36;100.00
38900;BME280;24660;43.238;26.576;2022-11-04T04:34:41;99488.94;;;5.36;100.00
38900;BME280;24660;43.238;26.576;2022-11-04T04:37:08;99482.03;;;5.48;100.00
38900;BME280;24660;43.238;26.576;2022-11-04T04:39:38;99485.44;;;5.35;100.00
38900;BME280;24660;43.238;26.576;2022-11-04T04:42:22;99475.44;;;5.25;100.00
38900;BME280;24660;43.238;26.576;2022-11-04T04:45:04;99470.44;;;5.34;100.00
38900;BME280;24660;43.238;26.576;2022-11-04T04:47:32;99457.88;;;5.38;100.00
38900;BME280;24660;43.238;26.576;2022-11-04T04:49:59;99461.41;;;5.53;100.00
38900;BME280;24660;43.238;26.576;2022-11-04T04:52:26;99460.84;;;5.62;100.00
38900;BME280;24660;43.238;26.576;2022-11-04T04:54:52;99454.94;;;5.43;100.00
38900;BME280;24660;43.238;26.576;2022-11-04T04:57:18;99459.56;;;5.25;100.00
38900;BME280;24660;43.238;26.576;2022-11-04T04:59:43;99466.66;;;5.24;100.00
38900;BME280;24660;43.238;26.576;2022-11-04T05:02:08;99470.38;;;5.36;100.00
38900;BME280;24660;43.238;26.576;2022-11-04T05:04:34;99482.81;;;5.50;100.00
38900;BME280;24660;43.238;26.576;2022-11-04T05:06:59;99477.13;;;5.56;100.00
38900;BME280;24660;43.238;26.576;2022-11-04T05:09:24;99488.03;;;5.95;100.00
38900;BME280;24660;43.238;26.576;2022-11-04T05:11:49;99484.63;;;6.08;100.00
38900;BME280;24660;43.238;26.576;2022-11-04T05:14:15;99486.16;;;5.68;100.00
38900;BME280;24660;43.238;26.576;2022-11-04T05:16:40;99486.88;;;5.55;100.00
38900;BME280;24660;43.238;26.576;2022-11-04T05:19:06;99492.00;;;5.58;100.00
38900;BME280;24660;43.238;26.576;2022-11-04T05:21:31;99498.84;;;5.77;100.00
38900;BME280;24660;43.238;26.576;2022-11-04T05:23:56;99495.41;;;6.05;100.00
38900;BME280;24660;43.238;26.576;2022-11-04T05:26:22;99493.25;;;6.11;100.00
38900;BME280;24660;43.238;26.576;2022-11-04T05:28:47;99487.78;;;5.84;100.00
38900;BME280;24660;43.238;26.576;2022-11-04T05:31:12;99485.59;;;5.77;100.00
38900;BME280;24660;43.238;26.576;2022-11-04T05:33:37;99493.03;;;6.00;100.00
38900;BME280;24660;43.238;26.576;2022-11-04T05:36:07;99485.53;;;5.78;100.00
38900;BME280;24660;43.238;26.576;2022-11-04T05:38:33;99492.94;;;6.02;100.00
38900;BME280;24660;43.238;26.576;2022-11-04T05:40:58;99491.63;;;6.37;100.00
38900;BME280;24660;43.238;26.576;2022-11-04T05:43:23;99486.75;;;6.44;100.00
38900;BME280;24660;43.238;26.576;2022-11-04T05:45:49;99493.19;;;6.54;100.00
38900;BME280;24660;43.238;26.576;2022-11-04T05:48:16;99479.94;;;6.54;100.00
38900;BME280;24660;43.238;26.576;2022-11-04T05:50:42;99479.81;;;6.55;100.00
38900;BME280;24660;43.238;26.576;2022-11-04T05:53:07;99471.50;;;6.74;100.00
38900;BME280;24660;43.238;26.576;2022-11-04T05:55:35;99468.63;;;6.65;100.00
38900;BME280;24660;43.238;26.576;2022-11-04T05:58:01;99468.44;;;6.95;100.00
38900;BME280;24660;43.238;26.576;2022-11-04T06:00:29;99468.66;;;7.44;100.00
38900;BME280;24660;43.238;26.576;2022-11-04T06:02:54;99465.16;;;7.43;100.00
38900;BME280;24660;43.238;26.576;2022-11-04T06:05:21;99468.28;;;7.76;100.00
38900;BME280;24660;43.238;26.576;2022-11-04T06:07:47;99460.59;;;8.09;100.00
38900;BME280;24660;43.238;26.576;2022-11-04T06:10:15;99450.81;;;8.35;100.00
38900;BME280;24660;43.238;26.576;2022-11-04T06:12:40;99449.31;;;8.18;100.00
38900;BME280;24660;43.238;26.576;2022-11-04T06:15:06;99450.78;;;8.22;100.00
38900;BME280;24660;43.238;26.576;2022-11-04T06:17:31;99458.09;;;8.57;100.00
38900;BME280;24660;43.238;26.576;2022-11-04T06:19:57;99456.88;;;8.98;100.00
38900;BME280;24660;43.238;26.576;2022-11-04T06:22:22;99456.88;;;8.74;100.00
38900;BME280;24660;43.238;26.576;2022-11-04T06:24:48;99463.50;;;8.68;100.00
38900;BME280;24660;43.238;26.576;2022-11-04T06:27:13;99471.53;;;9.16;100.00
38900;BME280;24660;43.238;26.576;2022-11-04T06:29:41;99475.69;;;9.66;100.00
38900;BME280;24660;43.238;26.576;2022-11-04T06:32:08;99473.78;;;9.79;100.00
38900;BME280;24660;43.238;26.576;2022-11-04T06:34:36;99472.59;;;9.95;100.00
38900;BME280;24660;43.238;26.576;2022-11-04T06:37:02;99475.47;;;9.80;100.00
38900;BME280;24660;43.238;26.576;2022-11-04T06:39:27;99473.69;;;9.92;100.00
38900;BME280;24660;43.238;26.576;2022-11-04T06:41:53;99470.81;;;10.40;100.00
38900;BME280;24660;43.238;26.576;2022-11-04T06:44:18;99472.69;;;10.94;100.00
38900;BME280;24660;43.238;26.576;2022-11-04T06:46:44;99462.34;;;11.33;100.00
38900;BME280;24660;43.238;26.576;2022-11-04T06:49:10;99461.72;;;11.61;100.00
38900;BME280;24660;43.238;26.576;2022-11-04T06:51:36;99467.47;;;11.77;100.00
38900;BME280;24660;43.238;26.576;2022-11-04T06:54:02;99464.53;;;12.01;100.00
38900;BME280;24660;43.238;26.576;2022-11-04T06:56:27;99458.13;;;12.13;100.00
38900;BME280;24660;43.238;26.576;2022-11-04T06:58:56;99454.16;;;12.48;100.00
38900;BME280;24660;43.238;26.576;2022-11-04T07:01:22;99449.13;;;12.64;100.00
38900;BME280;24660;43.238;26.576;2022-11-04T07:03:48;99449.16;;;12.74;100.00
38900;BME280;24660;43.238;26.576;2022-11-04T07:06:14;99446.38;;;12.85;100.00
38900;BME280;24660;43.238;26.576;2022-11-04T07:08:39;99447.09;;;13.06;100.00
38900;BME280;24660;43.238;26.576;2022-11-04T07:11:05;99447.31;;;13.24;100.00
38900;BME280;24660;43.238;26.576;2022-11-04T07:13:31;99438.38;;;13.43;100.00
38900;BME280;24660;43.238;26.576;2022-11-04T07:15:56;99441.47;;;13.68;98.72
38900;BME280;24660;43.238;26.576;2022-11-04T07:18:24;99440.72;;;13.85;96.99
38900;BME280;24660;43.238;26.576;2022-11-04T07:20:50;99434.91;;;13.99;95.74
38900;BME280;24660;43.238;26.576;2022-11-04T07:23:15;99432.13;;;14.18;95.78
38900;BME280;24660;43.238;26.576;2022-11-04T07:25:44;99423.06;;;14.19;92.92
38900;BME280;24660;43.238;26.576;2022-11-04T07:28:09;99426.88;;;14.26;91.93
38900;BME280;24660;43.238;26.576;2022-11-04T07:30:35;99426.13;;;14.34;90.20
38900;BME280;24660;43.238;26.576;2022-11-04T07:33:00;99425.38;;;14.51;89.50
38900;BME280;24660;43.238;26.576;2022-11-04T07:35:26;99419.13;;;14.78;88.35
38900;BME280;24660;43.238;26.576;2022-11-04T07:37:53;99419.13;;;15.32;85.67
38900;BME280;24660;43.238;26.576;2022-11-04T07:40:19;99414.84;;;15.39;84.25
38900;BME280;24660;43.238;26.576;2022-11-04T07:42:44;99410.13;;;15.77;81.72
38900;BME280;24660;43.238;26.576;2022-11-04T07:45:10;99400.63;;;15.72;80.13
38900;BME280;24660;43.238;26.576;2022-11-04T07:47:35;99399.22;;;15.86;79.11
38900;BME280;24660;43.238;26.576;2022-11-04T07:50:00;99406.50;;;16.20;76.71
38900;BME280;24660;43.238;26.576;2022-11-04T07:52:26;99405.97;;;16.50;76.64
38900;BME280;24660;43.238;26.576;2022-11-04T07:54:51;99396.56;;;16.20;76.30
38900;BME280;24660;43.238;26.576;2022-11-04T07:57:16;99390.78;;;15.81;76.43
38900;BME280;24660;43.238;26.576;2022-11-04T07:59:42;99388.69;;;15.75;76.86
38900;BME280;24660;43.238;26.576;2022-11-04T08:02:08;99391.81;;;15.88;76.70
38900;BME280;24660;43.238;26.576;2022-11-04T08:04:34;99387.50;;;15.95;77.05
38900;BME280;24660;43.238;26.576;2022-11-04T08:06:59;99378.22;;;15.98;76.13
38900;BME280;24660;43.238;26.576;2022-11-04T08:09:27;99387.50;;;16.03;75.23
38900;BME280;24660;43.238;26.576;2022-11-04T08:11:53;99381.66;;;16.08;75.27
38900;BME280;24660;43.238;26.576;2022-11-04T08:14:18;99383.25;;;16.27;74.76
38900;BME280;24660;43.238;26.576;2022-11-04T08:16:43;99376.41;;;16.41;73.12
38900;BME280;24660;43.238;26.576;2022-11-04T08:19:09;99377.94;;;16.43;73.13
38900;BME280;24660;43.238;26.576;2022-11-04T08:21:35;99370.56;;;16.53;72.96
38900;BME280;24660;43.238;26.576;2022-11-04T08:24:00;99357.41;;;16.58;71.87
38900;BME280;24660;43.238;26.576;2022-11-04T08:26:30;99356.47;;;16.68;72.19
38900;BME280;24660;43.238;26.576;2022-11-04T08:28:55;99351.75;;;16.86;70.97
38900;BME280;24660;43.238;26.576;2022-11-04T08:33:48;99349.44;;;17.07;69.66
38900;BME280;24660;43.238;26.576;2022-11-04T08:36:15;99351.47;;;17.21;69.53
38900;BME280;24660;43.238;26.576;2022-11-04T08:38:43;99346.91;;;17.46;69.04
38900;BME280;24660;43.238;26.576;2022-11-04T08:41:09;99346.91;;;17.38;69.47
38900;BME280;24660;43.238;26.576;2022-11-04T08:43:35;99344.84;;;17.73;67.61
38900;BME280;24660;43.238;26.576;2022-11-04T08:46:00;99336.25;;;17.61;67.48
38900;BME280;24660;43.238;26.576;2022-11-04T08:48:26;99337.09;;;17.70;67.49
38900;BME280;24660;43.238;26.576;2022-11-04T08:50:53;99341.34;;;18.12;65.54
38900;BME280;24660;43.238;26.576;2022-11-04T08:53:23;99344.16;;;18.34;65.11
38900;BME280;24660;43.238;26.576;2022-11-04T08:55:52;99343.81;;;18.68;64.89
38900;BME280;24660;43.238;26.576;2022-11-04T08:58:18;99341.06;;;19.22;61.87
38900;BME280;24660;43.238;26.576;2022-11-04T09:00:43;99337.09;;;19.10;61.51
38900;BME280;24660;43.238;26.576;2022-11-04T09:03:09;99334.16;;;19.20;60.94
38900;BME280;24660;43.238;26.576;2022-11-04T09:05:36;99337.38;;;19.38;59.43
38900;BME280;24660;43.238;26.576;2022-11-04T09:08:07;99329.13;;;19.54;56.11
38900;BME280;24660;43.238;26.576;2022-11-04T09:10:33;99311.28;;;19.37;56.22
38900;BME280;24660;43.238;26.576;2022-11-04T09:12:58;99313.00;;;19.53;55.28
38900;BME280;24660;43.238;26.576;2022-11-04T09:15:23;99322.34;;;19.88;55.67
38900;BME280;24660;43.238;26.576;2022-11-04T09:17:49;99318.69;;;19.81;55.71
38900;BME280;24660;43.238;26.576;2022-11-04T09:20:14;99301.56;;;19.66;54.81
38900;BME280;24660;43.238;26.576;2022-11-04T09:22:39;99302.00;;;19.54;54.97
38900;BME280;24660;43.238;26.576;2022-11-04T09:25:07;99293.22;;;19.67;54.74
38900;BME280;24660;43.238;26.576;2022-11-04T09:27:32;99296.31;;;19.64;57.47
38900;BME280;24660;43.238;26.576;2022-11-04T09:29:58;99287.81;;;19.82;54.46
38900;BME280;24660;43.238;26.576;2022-11-04T09:32:23;99287.06;;;20.17;54.27
38900;BME280;24660;43.238;26.576;2022-11-04T09:34:48;99283.88;;;20.14;54.40
38900;BME280;24660;43.238;26.576;2022-11-04T09:37:14;99274.31;;;20.18;54.12
38900;BME280;24660;43.238;26.576;2022-11-04T09:39:40;99261.50;;;19.97;53.48
38900;BME280;24660;43.238;26.576;2022-11-04T09:44:35;99270.59;;;20.40;52.10
38900;BME280;24660;43.238;26.576;2022-11-04T09:47:03;99258.00;;;20.69;51.36
38900;BME280;24660;43.238;26.576;2022-11-04T09:49:31;99253.28;;;20.56;51.79
38900;BME280;24660;43.238;26.576;2022-11-04T09:52:06;99251.88;;;20.60;51.33
38900;BME280;24660;43.238;26.576;2022-11-04T09:54:38;99239.22;;;20.53;51.97
38900;BME280;24660;43.238;26.576;2022-11-04T09:57:05;99244.22;;;20.49;51.61
38900;BME280;24660;43.238;26.576;2022-11-04T09:59:37;99236.28;;;20.48;52.26
38900;BME280;24660;43.238;26.576;2022-11-04T10:02:18;99238.03;;;20.55;51.68
38900;BME280;24660;43.238;26.576;2022-11-04T10:04:56;99240.00;;;20.68;51.91
38900;BME280;24660;43.238;26.576;2022-11-04T10:10:18;99228.38;;;20.95;50.74
38900;BME280;24660;43.238;26.576;2022-11-04T10:20:51;99221.56;;;21.27;49.85
38900;BME280;24660;43.238;26.576;2022-11-04T10:28:29;99201.50;;;21.28;49.25
38900;BME280;24660;43.238;26.576;2022-11-04T10:30:55;99200.53;;;21.15;49.57
38900;BME280;24660;43.238;26.576;2022-11-04T10:33:30;99188.81;;;21.14;49.78
38900;BME280;24660;43.238;26.576;2022-11-04T10:35:58;99188.56;;;21.37;49.77
38900;BME280;24660;43.238;26.576;2022-11-04T10:40:52;99161.03;;;20.91;50.45
38900;BME280;24660;43.238;26.576;2022-11-04T10:43:29;99170.63;;;21.15;50.09
38900;BME280;24660;43.238;26.576;2022-11-04T10:48:39;99160.16;;;21.40;48.57
38900;BME280;24660;43.238;26.576;2022-11-04T10:51:07;99157.53;;;21.25;48.96
38900;BME280;24660;43.238;26.576;2022-11-04T10:53:33;99156.22;;;21.49;48.71
38900;BME280;24660;43.238;26.576;2022-11-04T10:56:05;99148.75;;;21.64;47.67
38900;BME280;24660;43.238;26.576;2022-11-04T10:58:35;99143.34;;;21.29;49.20
38900;BME280;24660;43.238;26.576;2022-11-04T11:03:44;99136.88;;;21.30;48.72
38900;BME280;24660;43.238;26.576;2022-11-04T11:08:42;99128.75;;;21.37;49.58
38900;BME280;24660;43.238;26.576;2022-11-04T11:11:08;99124.38;;;20.80;50.66
38900;BME280;24660;43.238;26.576;2022-11-04T11:13:35;99116.09;;;21.23;48.74
38900;BME280;24660;43.238;26.576;2022-11-04T11:16:09;99118.19;;;20.93;50.33
38900;BME280;24660;43.238;26.576;2022-11-04T11:18:36;99112.72;;;20.15;53.28
38900;BME280;24660;43.238;26.576;2022-11-04T11:23:32;99114.84;;;20.91;50.68
38900;BME280;24660;43.238;26.576;2022-11-04T11:25:58;99110.72;;;21.29;49.05
38900;BME280;24660;43.238;26.576;2022-11-04T11:28:24;99105.44;;;20.93;50.09
38900;BME280;24660;43.238;26.576;2022-11-04T11:33:44;99107.31;;;21.62;48.38
38900;BME280;24660;43.238;26.576;2022-11-04T11:41:16;99093.28;;;21.58;48.98
38900;BME280;24660;43.238;26.576;2022-11-04T11:43:48;99096.91;;;21.72;48.06
38900;BME280;24660;43.238;26.576;2022-11-04T11:46:19;99103.69;;;21.96;47.52
38900;BME280;24660;43.238;26.576;2022-11-04T11:48:49;99103.47;;;21.98;47.09
38900;BME280;24660;43.238;26.576;2022-11-04T11:51:21;99103.88;;;22.01;46.60
38900;BME280;24660;43.238;26.576;2022-11-04T11:56:35;99082.78;;;21.49;48.31
38900;BME280;24660;43.238;26.576;2022-11-04T12:00:09;99082.41;;;21.65;47.65
38900;BME280;24660;43.238;26.576;2022-11-04T12:02:03;99079.28;;;21.61;47.62
38900;BME280;24660;43.238;26.576;2022-11-04T12:04:35;99075.97;;;21.73;47.46
38900;BME280;24660;43.238;26.576;2022-11-04T12:09:39;99057.56;;;21.75;47.59
38900;BME280;24660;43.238;26.576;2022-11-04T12:12:11;99065.34;;;21.91;47.78
38900;BME280;24660;43.238;26.576;2022-11-04T12:17:21;99061.81;;;21.97;47.11
38900;BME280;24660;43.238;26.576;2022-11-04T12:22:35;99059.03;;;21.77;47.21
38900;BME280;24660;43.238;26.576;2022-11-04T12:25:11;99059.44;;;21.74;47.55
38900;BME280;24660;43.238;26.576;2022-11-04T12:27:46;99057.13;;;21.23;48.67
38900;BME280;24660;43.238;26.576;2022-11-04T12:30:16;99067.84;;;20.97;48.76
38900;BME280;24660;43.238;26.576;2022-11-04T12:32:50;99058.09;;;21.44;47.86
38900;BME280;24660;43.238;26.576;2022-11-04T12:40:27;99051.28;;;21.74;47.59
38900;BME280;24660;43.238;26.576;2022-11-04T12:42:57;99048.63;;;21.33;48.00
38900;BME280;24660;43.238;26.576;2022-11-04T12:48:06;99052.22;;;21.05;48.49
38900;BME280;24660;43.238;26.576;2022-11-04T12:55:35;99039.94;;;20.47;50.35
38900;BME280;24660;43.238;26.576;2022-11-04T13:00:29;99043.88;;;20.72;49.43
38900;BME280;24660;43.238;26.576;2022-11-04T13:05:41;99048.22;;;20.17;50.23
38900;BME280;24660;43.238;26.576;2022-11-04T13:08:17;99033.41;;;20.20;50.47
38900;BME280;24660;43.238;26.576;2022-11-04T13:10:50;99023.13;;;20.37;49.93
38900;BME280;24660;43.238;26.576;2022-11-04T13:13:20;99026.47;;;20.60;49.50
38900;BME280;24660;43.238;26.576;2022-11-04T13:15:50;99036.16;;;20.76;48.92
38900;BME280;24660;43.238;26.576;2022-11-04T13:18:18;99031.56;;;20.42;49.83
38900;BME280;24660;43.238;26.576;2022-11-04T13:23:13;99022.34;;;20.71;49.12
38900;BME280;24660;43.238;26.576;2022-11-04T13:25:42;99014.50;;;20.05;51.06
38900;BME280;24660;43.238;26.576;2022-11-04T13:28:11;99011.59;;;20.28;50.50
38900;BME280;24660;43.238;26.576;2022-11-04T13:38:27;99038.44;;;20.72;49.40
38900;BME280;24660;43.238;26.576;2022-11-04T13:41:07;99018.78;;;20.14;50.66
38900;BME280;24660;43.238;26.576;2022-11-04T13:43:38;99015.91;;;20.44;50.64
38900;BME280;24660;43.238;26.576;2022-11-04T13:48:32;99022.63;;;20.55;49.79
38900;BME280;24660;43.238;26.576;2022-11-04T13:50:59;99017.63;;;20.52;49.84
38900;BME280;24660;43.238;26.576;2022-11-04T13:56:06;99019.13;;;20.33;50.22
38900;BME280;24660;43.238;26.576;2022-11-04T13:58:32;99021.63;;;20.34;50.07
38900;BME280;24660;43.238;26.576;2022-11-04T14:03:39;99016.06;;;20.14;50.79
38900;BME280;24660;43.238;26.576;2022-11-04T14:06:17;99017.09;;;19.92;51.94
38900;BME280;24660;43.238;26.576;2022-11-04T14:12:15;99013.81;;;20.25;50.65
38900;BME280;24660;43.238;26.576;2022-11-04T14:14:28;99010.84;;;20.13;51.02
38900;BME280;24660;43.238;26.576;2022-11-04T14:16:53;99015.03;;;20.15;50.75
38900;BME280;24660;43.238;26.576;2022-11-04T14:22:10;99010.81;;;19.70;52.11
38900;BME280;24660;43.238;26.576;2022-11-04T14:24:38;99008.06;;;19.49;53.19
38900;BME280;24660;43.238;26.576;2022-11-04T14:27:03;99011.47;;;19.36;53.13
38900;BME280;24660;43.238;26.576;2022-11-04T14:29:30;99008.56;;;19.02;54.52
38900;BME280;24660;43.238;26.576;2022-11-04T14:31:56;99016.41;;;18.96;54.91
38900;BME280;24660;43.238;26.576;2022-11-04T14:36:49;99018.34;;;18.58;56.25
38900;BME280;24660;43.238;26.576;2022-11-04T14:39:20;99013.84;;;18.51;56.60
38900;BME280;24660;43.238;26.576;2022-11-04T14:44:17;99002.56;;;18.09;57.70
38900;BME280;24660;43.238;26.576;2022-11-04T14:46:46;99002.72;;;17.93;57.74
38900;BME280;24660;43.238;26.576;2022-11-04T14:51:52;98995.03;;;17.82;58.42
38900;BME280;24660;43.238;26.576;2022-11-04T14:54:18;98994.00;;;17.60;58.77
38900;BME280;24660;43.238;26.576;2022-11-04T14:56:44;98990.69;;;17.50;58.90
38900;BME280;24660;43.238;26.576;2022-11-04T14:59:19;98989.69;;;17.43;59.01
38900;BME280;24660;43.238;26.576;2022-11-04T15:01:45;98986.97;;;17.51;58.82
38900;BME280;24660;43.238;26.576;2022-11-04T15:04:17;98978.56;;;17.15;60.48
38900;BME280;24660;43.238;26.576;2022-11-04T15:06:53;98984.81;;;17.46;59.54
38900;BME280;24660;43.238;26.576;2022-11-04T15:09:25;98974.06;;;17.30;59.90